createdAt,value
2023-03-28T00:00:22.113Z,3.18
2023-03-28T00:05:20.345Z,3.23
2023-03-28T00:10:17.009Z,3.20
2023-03-28T00:15:15.657Z,3.19
2023-03-28T00:20:14.152Z,3.09
2023-03-28T00:25:11.502Z,3.12
2023-03-28T00:30:09.431Z,3.09
2023-03-28T00:35:06.160Z,3.09
2023-03-28T00:40:02.739Z,3.06
2023-03-28T00:44:59.191Z,3.01
2023-03-28T00:50:05.511Z,2.96
2023-03-28T00:55:04.488Z,2.93
2023-03-28T01:00:00.934Z,2.89
2023-03-28T01:05:01.638Z,2.89
2023-03-28T01:09:59.426Z,2.80
2023-03-28T01:14:56.384Z,2.78
2023-03-28T01:20:39.911Z,2.72
2023-03-28T01:25:41.965Z,2.69
2023-03-28T01:30:44.303Z,2.66
2023-03-28T01:35:59.533Z,2.63
2023-03-28T01:41:37.894Z,2.58
2023-03-28T01:46:39.491Z,2.52
2023-03-28T01:51:54.129Z,2.52
2023-03-28T01:57:10.982Z,2.46
2023-03-28T02:02:09.767Z,2.44
2023-03-28T02:07:08.920Z,2.39
2023-03-28T02:12:33.736Z,2.39
2023-03-28T02:17:31.091Z,2.32
2023-03-28T02:22:34.493Z,2.26
2023-03-28T02:27:31.727Z,2.26
2023-03-28T02:32:28.355Z,2.25
2023-03-28T02:37:35.370Z,2.23
2023-03-28T02:42:33.666Z,2.22
2023-03-28T02:48:02.429Z,2.16
2023-03-28T02:53:22.180Z,2.13
2023-03-28T02:58:25.025Z,2.15
2023-03-28T03:03:23.311Z,2.08
2023-03-28T03:08:20.295Z,2.09
2023-03-28T03:13:16.814Z,2.02
2023-03-28T03:18:13.610Z,2.03
2023-03-28T03:23:10.289Z,2.04
2023-03-28T03:28:06.724Z,2.02
2023-03-28T03:33:10.287Z,1.94
2023-03-28T03:38:06.977Z,1.78
2023-03-28T03:43:03.508Z,2.01
2023-03-28T03:48:00.209Z,2.04
2023-03-28T03:52:57.976Z,2.01
2023-03-28T03:57:59.215Z,2.00
2023-03-28T04:02:55.857Z,1.99
2023-03-28T04:24:55.678Z,1.85
2023-03-28T04:29:55.810Z,1.93
2023-03-28T04:35:47.921Z,1.95
2023-03-28T04:45:56.540Z,1.80
2023-03-28T15:03:22.348Z,9.11
2023-03-28T15:08:37.826Z,9.06
2023-03-28T16:02:56.054Z,8.89
2023-03-28T16:07:54.242Z,9.03
2023-03-28T16:12:51.520Z,9.04
2023-03-28T16:17:49.144Z,9.08
2023-03-28T16:22:46.221Z,9.12
2023-03-28T16:27:42.953Z,9.18
2023-03-28T16:32:39.414Z,9.18
2023-03-28T16:37:35.994Z,9.23
2023-03-28T16:42:32.434Z,9.21
2023-03-28T16:47:29.584Z,9.17
2023-03-28T16:52:27.883Z,9.05
2023-03-28T16:57:27.371Z,9.01
2023-03-28T17:02:24.034Z,8.96
2023-03-28T17:07:21.049Z,8.93
2023-03-28T17:12:18.239Z,8.89
2023-03-28T17:17:15.548Z,8.83
2023-03-28T17:22:13.179Z,8.80
2023-03-28T17:27:09.682Z,8.78
2023-03-28T17:32:07.005Z,8.75
2023-03-28T17:37:04.116Z,8.71
2023-03-28T17:42:00.712Z,8.69
2023-03-28T17:46:57.512Z,8.54
2023-03-28T17:52:02.368Z,8.60
2023-03-28T17:57:03.303Z,8.49
2023-03-28T18:01:59.785Z,8.37
2023-03-28T18:06:56.900Z,8.30
2023-03-28T18:11:53.533Z,8.21
2023-03-28T18:16:50.040Z,8.11
2023-03-28T19:01:20.725Z,7.80
2023-03-28T19:07:41.079Z,7.65
2023-03-28T19:43:29.025Z,7.67
2023-03-28T19:48:25.922Z,7.67
2023-03-28T19:53:22.241Z,7.71
2023-03-28T19:58:18.785Z,7.67
2023-03-28T20:03:15.851Z,7.64
2023-03-28T20:08:13.336Z,7.65
2023-03-28T20:13:10.040Z,7.64
2023-03-28T20:18:07.324Z,7.60
2023-03-28T20:23:04.124Z,7.51
2023-03-28T20:28:02.335Z,7.57
2023-03-28T20:32:58.894Z,7.57
2023-03-28T20:37:56.860Z,7.56
2023-03-28T20:42:54.565Z,7.49
2023-03-28T20:47:58.997Z,7.56
2023-03-28T20:52:55.628Z,7.54
2023-03-28T20:57:52.080Z,7.52
2023-03-28T21:02:53.880Z,7.52
2023-03-28T21:07:51.319Z,7.53
2023-03-28T21:12:49.143Z,7.52
2023-03-28T21:17:49.041Z,7.52
2023-03-28T21:22:45.606Z,7.49
2023-03-28T21:27:42.204Z,7.41
2023-03-28T21:32:38.880Z,7.46
2023-03-28T21:37:35.884Z,7.44
2023-03-28T21:42:34.795Z,7.39
2023-03-28T21:47:31.514Z,7.37
2023-03-28T21:52:28.182Z,7.39
2023-03-28T21:57:24.738Z,7.31
2023-03-28T22:02:21.495Z,7.34
2023-03-28T22:07:18.033Z,7.31
2023-03-28T22:12:17.216Z,7.22
2023-03-28T22:17:13.899Z,7.28
2023-03-28T22:22:11.177Z,7.26
2023-03-28T22:27:09.584Z,7.26
2023-03-28T22:32:06.364Z,7.23
2023-03-28T22:37:03.101Z,7.26
2023-03-28T22:41:59.544Z,7.17
2023-03-28T22:47:02.101Z,7.26
2023-03-28T22:52:03.204Z,7.21
2023-03-28T22:57:00.586Z,7.15
2023-03-28T23:01:57.565Z,7.09
2023-03-28T23:06:54.927Z,7.04
2023-03-28T23:11:51.775Z,6.93
2023-03-28T23:16:48.360Z,6.98
2023-03-28T23:21:44.892Z,6.97
2023-03-28T23:26:41.541Z,6.98
2023-03-28T23:31:38.163Z,6.99
2023-03-28T23:36:34.661Z,7.01
2023-03-28T23:41:31.116Z,7.01
2023-03-28T23:46:27.603Z,7.08
2023-03-28T23:51:28.978Z,7.06
2023-03-28T23:56:25.836Z,7.11
